Time;durP1;ratioP1;P1;durP2;ratioP2;P2;SDS_P1;SDS_P2;PMS_P1;PMS_P2;Temp;Humidity;BMP_temperature;BMP_pressure;BME280_temperature;BME280_humidity;BME280_pressure;Samples;Min_cycle;Max_cycle;Signal;HPM_P1;HPM_P2
2021/06/22 00:01:23;;;;;;;;;;;;;;;26.02;51.76;100271.81;5071356;28;1349;-71
2021/06/22 00:04:09;;;;;;;;;;;;;;;25.97;52.16;100275.91;5070367;28;580;-70
2021/06/22 00:06:54;;;;;;;;;;;;;;;25.95;52.23;100277.88;5071325;28;1370;-70
2021/06/22 00:09:39;;;;;;;;;;;;;;;25.96;52.09;100282.25;5071425;28;1980;-70
2021/06/22 00:12:25;;;;;;;;;;;;;;;25.99;51.47;100279.28;5071447;28;1335;-73
2021/06/22 00:15:12;;;;;;;;;;;;;;;25.99;51.32;100279.28;5071391;28;636;-71
2021/06/22 00:17:57;;;;;;;;;;;;;;;25.98;50.60;100272.25;5071576;28;1375;-70
2021/06/22 00:20:42;;;;;;;;;;;;;;;25.91;49.67;100263.13;5071314;28;648;-70
2021/06/22 00:23:28;;;;;;;;;;;;;;;25.96;50.81;100263.56;5071774;28;1363;-71
2021/06/22 00:26:13;;;;;;;;;;;;;;;25.96;48.88;100266.22;5071157;28;1273;-70
2021/06/22 00:28:58;;;;;;;;;;;;;;;26.00;47.80;100267.59;5071048;28;1898;-71
2021/06/22 00:31:43;;;;;;;;;;;;;;;25.94;46.43;100265.50;5070136;28;1378;-70
2021/06/22 00:34:29;;;;;;;;;;;;;;;25.90;44.18;100264.97;5071060;28;663;-70
2021/06/22 00:37:15;;;;;;;;;;;;;;;25.92;45.63;100264.84;5071065;28;1390;-71
2021/06/22 00:40:01;;;;;;;;;;;;;;;25.89;44.55;100260.63;5071005;28;690;-71
2021/06/22 00:42:46;;;;;;;;;;;;;;;25.88;43.87;100263.44;5069785;28;1272;-71
2021/06/22 00:45:36;;;;;;;;;;;;;;;25.87;41.49;100261.78;5069813;28;643;-70
2021/06/22 00:48:21;;;;;;;;;;;;;;;25.87;42.38;100269.78;5069963;28;1268;-70
2021/06/22 00:51:06;;;;;;;;;;;;;;;25.83;40.25;100271.88;5070615;28;1276;-70
2021/06/22 00:53:52;;;;;;;;;;;;;;;25.82;40.04;100274.69;5070817;28;627;-71
2021/06/22 00:56:37;;;;;;;;;;;;;;;25.82;39.29;100272.84;5070541;28;1214;-69
2021/06/22 00:59:23;;;;;;;;;;;;;;;25.79;40.93;100264.28;5069868;28;667;-69
2021/06/22 01:02:08;;;;;;;;;;;;;;;25.78;39.05;100267.94;5070662;28;1317;-71
2021/06/22 01:04:54;;;;;;;;;;;;;;;25.78;42.30;100262.59;5069359;28;588;-69
2021/06/22 01:07:39;;;;;;;;;;;;;;;25.73;39.35;100259.53;5070573;28;1367;-71
2021/06/22 01:10:25;;;;;;;;;;;;;;;25.77;40.00;100250.28;5070302;28;1902;-69
2021/06/22 01:13:10;;;;;;;;;;;;;;;25.72;38.67;100250.69;5070687;28;1373;-69
2021/06/22 01:15:56;;;;;;;;;;;;;;;25.72;38.49;100247.16;5069820;28;1671;-70
2021/06/22 01:18:41;;;;;;;;;;;;;;;25.71;40.29;100257.03;5070219;28;1078;-71
2021/06/22 01:21:28;;;;;;;;;;;;;;;25.68;39.87;100261.81;5068982;28;1369;-71
2021/06/22 01:24:20;;;;;;;;;;;;;;;25.65;38.90;100256.75;5069863;28;631;-71
2021/06/22 01:27:06;;;;;;;;;;;;;;;25.60;41.12;100259.84;5070144;28;1226;-69
2021/06/22 01:29:52;;;;;;;;;;;;;;;25.69;39.57;100263.47;5069919;28;1973;-71
2021/06/22 01:32:37;;;;;;;;;;;;;;;25.69;36.64;100263.47;5070183;28;1289;-70
2021/06/22 01:35:24;;;;;;;;;;;;;;;25.71;35.16;100267.69;5069913;28;643;-70
2021/06/22 01:38:10;;;;;;;;;;;;;;;25.72;36.82;100263.19;5070114;28;1291;-70
2021/06/22 01:40:55;;;;;;;;;;;;;;;25.64;34.33;100261.25;5069633;28;620;-70
2021/06/22 01:43:41;;;;;;;;;;;;;;;25.68;37.22;100254.66;5069888;28;1089;-71
2021/06/22 01:46:26;;;;;;;;;;;;;;;25.56;33.85;100261.13;5068954;28;1318;-71
2021/06/22 01:49:11;;;;;;;;;;;;;;;25.57;34.56;100260.13;5069378;28;1906;-70
2021/06/22 01:51:56;;;;;;;;;;;;;;;25.54;33.99;100255.91;5069608;28;1408;-69
2021/06/22 01:54:42;;;;;;;;;;;;;;;25.56;33.09;100254.94;5069280;28;667;-70
2021/06/22 01:57:27;;;;;;;;;;;;;;;25.58;32.88;100255.63;5069393;28;1346;-71
2021/06/22 02:00:13;;;;;;;;;;;;;;;25.59;33.77;100250.16;5069436;28;695;-71
2021/06/22 02:02:58;;;;;;;;;;;;;;;25.54;32.03;100247.91;5069131;28;1365;-70
2021/06/22 02:05:44;;;;;;;;;;;;;;;25.49;31.91;100247.50;5067881;28;652;-71
2021/06/22 02:08:29;;;;;;;;;;;;;;;25.56;32.65;100250.47;5069226;28;1288;-70
2021/06/22 02:11:15;;;;;;;;;;;;;;;25.56;32.12;100254.94;5068891;28;1298;-70
2021/06/22 02:14:00;;;;;;;;;;;;;;;25.49;32.13;100252.00;5069382;28;679;-70
2021/06/22 02:16:46;;;;;;;;;;;;;;;25.52;32.15;100251.72;5069124;28;1642;-70
2021/06/22 02:19:31;;;;;;;;;;;;;;;25.55;32.80;100259.44;5069409;28;640;-71
2021/06/22 02:22:17;;;;;;;;;;;;;;;25.47;31.39;100262.75;5069233;28;1387;-69
2021/06/22 02:25:04;;;;;;;;;;;;;;;25.44;31.58;100255.03;5068000;28;688;-69
2021/06/22 02:27:49;;;;;;;;;;;;;;;25.47;32.04;100254.75;5067760;28;1345;-69
2021/06/22 02:30:35;;;;;;;;;;;;;;;25.49;32.83;100268.00;5069118;28;1905;-69
2021/06/22 02:33:21;;;;;;;;;;;;;;;25.48;32.08;100268.94;5068664;28;1502;-69
2021/06/22 02:36:06;;;;;;;;;;;;;;;25.46;32.07;100268.25;5068665;28;715;-69
2021/06/22 02:38:52;;;;;;;;;;;;;;;25.44;33.06;100276.38;5068631;28;710;-69
2021/06/22 02:41:37;;;;;;;;;;;;;;;25.39;32.65;100277.78;5067978;28;1292;-68
2021/06/22 02:44:22;;;;;;;;;;;;;;;25.40;32.02;100272.34;5068620;28;611;-68
2021/06/22 02:47:07;;;;;;;;;;;;;;;25.41;32.64;100279.31;5068388;28;1295;-68
2021/06/22 02:49:53;;;;;;;;;;;;;;;25.36;32.03;100278.91;5068412;28;1906;-69
2021/06/22 02:52:39;;;;;;;;;;;;;;;25.46;32.85;100285.09;5070837;28;1260;-67
2021/06/22 02:55:25;;;;;;;;;;;;;;;25.37;31.99;100291.28;5072999;28;619;-66
2021/06/22 02:58:11;;;;;;;;;;;;;;;25.39;32.12;100289.31;5071428;28;1374;-67
2021/06/22 03:00:56;;;;;;;;;;;;;;;25.45;32.72;100288.75;5070896;28;648;-67
2021/06/22 03:03:41;;;;;;;;;;;;;;;25.43;34.47;100295.19;5069572;28;1063;-69
2021/06/22 03:06:27;;;;;;;;;;;;;;;25.38;31.68;100295.59;5068645;28;1291;-70
2021/06/22 03:09:12;;;;;;;;;;;;;;;25.39;32.94;100297.31;5068261;28;1906;-68
2021/06/22 03:11:58;;;;;;;;;;;;;;;25.43;33.47;100306.72;5068340;28;1383;-68
2021/06/22 03:14:43;;;;;;;;;;;;;;;25.42;32.75;100307.69;5068571;28;597;-69
2021/06/22 03:17:28;;;;;;;;;;;;;;;25.31;32.15;100302.50;5068250;28;1550;-70
2021/06/22 03:20:15;;;;;;;;;;;;;;;25.28;33.01;100305.44;5067596;28;624;-70
2021/06/22 03:23:00;;;;;;;;;;;;;;;25.31;33.11;100318.50;5069414;28;1303;-71
2021/06/22 03:25:46;;;;;;;;;;;;;;;25.26;34.68;100310.06;5068395;28;640;-70
2021/06/22 03:28:31;;;;;;;;;;;;;;;25.32;35.22;100324.69;5068687;28;1376;-69
2021/06/22 03:31:16;;;;;;;;;;;;;;;25.32;36.37;100336.16;5068272;28;1957;-71
2021/06/22 03:34:02;;;;;;;;;;;;;;;25.30;36.87;100335.47;5068792;28;647;-71
2021/06/22 03:36:47;;;;;;;;;;;;;;;25.27;37.01;100343.75;5068086;28;1252;-71
2021/06/22 03:39:33;;;;;;;;;;;;;;;25.26;37.14;100341.22;5068153;28;644;-69
2021/06/22 03:42:18;;;;;;;;;;;;;;;25.21;36.60;100346.13;5067850;28;1283;-69
2021/06/22 03:45:05;;;;;;;;;;;;;;;25.21;36.02;100352.28;5067904;28;589;-70
2021/06/22 03:47:50;;;;;;;;;;;;;;;25.24;35.63;100356.50;5068110;28;1361;-69
2021/06/22 03:50:36;;;;;;;;;;;;;;;25.18;35.15;100360.56;5066235;28;1914;-69
2021/06/22 03:53:22;;;;;;;;;;;;;;;25.16;37.37;100367.88;5066735;28;1270;-70
2021/06/22 03:56:07;;;;;;;;;;;;;;;25.07;34.55;100363.34;5067577;28;1272;-70
2021/06/22 03:58:52;;;;;;;;;;;;;;;24.99;34.51;100372.03;5067648;28;1046;-70
2021/06/22 04:01:37;;;;;;;;;;;;;;;24.95;34.12;100378.63;5067851;28;1359;-69
2021/06/22 04:04:23;;;;;;;;;;;;;;;24.97;34.96;100383.81;5067815;28;1072;-70
2021/06/22 04:07:08;;;;;;;;;;;;;;;24.95;35.57;100391.09;5067434;28;1286;-69
2021/06/22 04:09:54;;;;;;;;;;;;;;;25.05;35.25;100391.13;5067691;28;1902;-71
2021/06/22 04:12:39;;;;;;;;;;;;;;;25.00;33.61;100404.84;5067573;28;1244;-70
2021/06/22 04:15:25;;;;;;;;;;;;;;;25.02;34.16;100407.38;5068292;28;1148;-69
2021/06/22 04:18:11;;;;;;;;;;;;;;;24.98;33.85;100406.81;5067525;28;1369;-70
2021/06/22 04:20:56;;;;;;;;;;;;;;;25.01;33.81;100401.22;5066292;28;723;-70
2021/06/22 04:23:42;;;;;;;;;;;;;;;24.96;33.93;100408.75;5067273;28;1067;-70
2021/06/22 04:26:27;;;;;;;;;;;;;;;24.98;35.13;100406.81;5067628;28;1274;-70
2021/06/22 04:29:12;;;;;;;;;;;;;;;24.96;33.83;100411.41;5068032;28;1146;-73
2021/06/22 04:31:57;;;;;;;;;;;;;;;24.99;34.96;100411.16;5068822;28;1306;-71
2021/06/22 04:34:43;;;;;;;;;;;;;;;25.01;33.67;100411.88;5071521;28;933;-71
2021/06/22 04:37:28;;;;;;;;;;;;;;;25.01;34.15;100419.88;5071345;28;1241;-71
2021/06/22 04:40:13;;;;;;;;;;;;;;;24.96;34.58;100414.94;5070892;28;946;-71
2021/06/22 04:43:00;;;;;;;;;;;;;;;24.99;37.84;100422.66;5071303;28;1357;-70
2021/06/22 04:45:45;;;;;;;;;;;;;;;25.04;38.43;100424.06;5071137;28;667;-69
2021/06/22 04:48:31;;;;;;;;;;;;;;;25.04;40.97;100435.59;5071591;28;1292;-73
2021/06/22 04:51:16;;;;;;;;;;;;;;;25.01;41.78;100435.84;5070910;28;1933;-71
2021/06/22 04:54:01;;;;;;;;;;;;;;;24.89;42.85;100440.44;5070694;28;1113;-71
2021/06/22 04:56:47;;;;;;;;;;;;;;;24.86;42.66;100431.88;5070847;28;1312;-72
2021/06/22 04:59:33;;;;;;;;;;;;;;;24.93;42.98;100441.00;5070604;28;866;-70
2021/06/22 05:02:36;;;;;;;;;;;;;;;24.97;44.32;100442.41;5071146;28;1260;-70
2021/06/22 05:05:21;;;;;;;;;;;;;;;24.95;44.48;100449.72;5071162;28;1033;-69
2021/06/22 05:08:07;;;;;;;;;;;;;;;24.99;44.70;100446.63;5070860;28;1260;-70
2021/06/22 05:10:53;;;;;;;;;;;;;;;24.95;45.11;100455.03;5070554;28;1925;-69
2021/06/22 05:13:38;;;;;;;;;;;;;;;24.92;45.93;100461.50;5069657;28;1573;-68
2021/06/22 05:16:23;;;;;;;;;;;;;;;24.98;45.78;100476.94;5069556;28;1637;-68
2021/06/22 05:19:09;;;;;;;;;;;;;;;24.98;45.95;100476.09;5069515;28;1130;-67
2021/06/22 05:21:54;;;;;;;;;;;;;;;24.98;46.04;100473.44;5069444;28;1272;-68
2021/06/22 05:24:39;;;;;;;;;;;;;;;24.95;46.47;100477.22;5069629;28;909;-69
2021/06/22 05:27:25;;;;;;;;;;;;;;;24.95;46.36;100476.34;5068385;28;1287;-69
2021/06/22 05:30:10;;;;;;;;;;;;;;;24.98;46.23;100481.41;5069348;28;1977;-69
2021/06/22 05:32:56;;;;;;;;;;;;;;;24.99;46.22;100483.94;5068075;28;1272;-69
2021/06/22 05:35:41;;;;;;;;;;;;;;;25.02;46.16;100486.34;5067810;28;899;-68
2021/06/22 05:38:26;;;;;;;;;;;;;;;25.04;46.20;100482.69;5068844;28;1288;-68
2021/06/22 05:41:12;;;;;;;;;;;;;;;24.95;46.46;100492.34;5069718;28;1432;-69
2021/06/22 05:43:57;;;;;;;;;;;;;;;25.00;46.46;100500.78;5069553;28;1037;-68
2021/06/22 05:46:43;;;;;;;;;;;;;;;24.98;45.93;100497.41;5069783;28;1291;-68
2021/06/22 05:49:28;;;;;;;;;;;;;;;24.99;45.93;100499.06;5069295;28;1134;-69
2021/06/22 05:52:14;;;;;;;;;;;;;;;25.08;45.50;100506.28;5068771;28;1288;-70
2021/06/22 05:54:59;;;;;;;;;;;;;;;25.11;45.46;100506.00;5068671;28;1268;-69
2021/06/22 05:57:49;;;;;;;;;;;;;;;25.12;45.13;100507.69;5068825;28;1369;-67
2021/06/22 06:00:34;;;;;;;;;;;;;;;25.17;45.28;100510.78;5068844;28;1049;-69
2021/06/22 06:03:19;;;;;;;;;;;;;;;25.20;44.94;100513.19;5066356;28;1302;-68
2021/06/22 06:06:05;;;;;;;;;;;;;;;25.25;45.86;100524.31;5067934;28;1063;-68
2021/06/22 06:08:50;;;;;;;;;;;;;;;25.22;45.40;100521.91;5068930;28;1081;-69
2021/06/22 06:11:35;;;;;;;;;;;;;;;25.23;45.98;100522.78;5080395;28;1985;-68
2021/06/22 06:14:21;;;;;;;;;;;;;;;25.16;45.91;100517.13;5066873;28;1498;-69
2021/06/22 06:17:06;;;;;;;;;;;;;;;25.25;45.84;100531.47;5058844;28;2055;-68
2021/06/22 06:19:51;;;;;;;;;;;;;;;25.26;45.60;100533.97;5072144;28;1149;-67
2021/06/22 06:22:38;;;;;;;;;;;;;;;25.30;45.42;100540.75;5076004;28;1394;-69
2021/06/22 06:25:24;;;;;;;;;;;;;;;25.31;45.48;100539.78;5077818;28;1188;-69
2021/06/22 06:28:16;;;;;;;;;;;;;;;25.29;45.37;100540.88;5069173;28;1346;-68
2021/06/22 06:31:02;;;;;;;;;;;;;;;25.29;45.52;100544.38;5069766;28;1926;-65
2021/06/22 06:33:49;;;;;;;;;;;;;;;25.33;45.34;100558.28;5063604;28;1502;-68
2021/06/22 06:36:34;;;;;;;;;;;;;;;25.35;45.13;100557.16;5065837;28;1292;-71
2021/06/22 06:39:19;;;;;;;;;;;;;;;25.33;45.11;100560.94;5065543;28;1466;-68
2021/06/22 06:42:04;;;;;;;;;;;;;;;25.33;45.57;100564.47;5063109;28;1425;-69
2021/06/22 06:44:51;;;;;;;;;;;;;;;25.30;45.55;100572.72;5064493;28;1152;-71
2021/06/22 06:47:36;;;;;;;;;;;;;;;25.36;46.37;100571.34;5058281;28;1331;-69
2021/06/22 06:50:21;;;;;;;;;;;;;;;25.36;46.69;100571.34;5065507;28;1910;-72
2021/06/22 06:53:07;;;;;;;;;;;;;;;25.40;47.07;100573.63;5092966;28;1303;-72
2021/06/22 06:55:52;;;;;;;;;;;;;;;25.44;47.04;100584.88;5063893;28;719;-72
2021/06/22 06:58:37;;;;;;;;;;;;;;;25.38;47.82;100580.91;5065972;28;1026;-70
2021/06/22 07:01:23;;;;;;;;;;;;;;;25.39;47.96;100582.59;5064658;28;1632;-69
2021/06/22 07:04:08;;;;;;;;;;;;;;;25.38;48.31;100590.75;5064326;28;1047;-69
2021/06/22 07:06:53;;;;;;;;;;;;;;;25.27;48.82;100586.34;5065444;28;1322;-73
2021/06/22 07:09:39;;;;;;;;;;;;;;;25.35;48.30;100593.69;5065604;28;930;-70
2021/06/22 07:12:24;;;;;;;;;;;;;;;25.32;48.27;100592.09;5063330;28;1383;-69
2021/06/22 07:15:09;;;;;;;;;;;;;;;25.32;48.72;100591.28;5062684;28;979;-69
2021/06/22 07:17:55;;;;;;;;;;;;;;;25.30;48.44;100594.06;5064863;28;1346;-72
2021/06/22 07:20:40;;;;;;;;;;;;;;;25.21;48.71;100597.53;5065034;28;985;-76
2021/06/22 07:23:26;;;;;;;;;;;;;;;25.28;49.06;100590.69;5064710;28;1405;-71
2021/06/22 07:26:12;;;;;;;;;;;;;;;25.29;48.72;100591.53;5081033;28;1425;-72
2021/06/22 07:28:57;;;;;;;;;;;;;;;25.29;48.79;100596.88;5064847;28;1038;-74
2021/06/22 07:31:42;;;;;;;;;;;;;;;25.25;48.82;100592.78;5065844;28;1898;-71
2021/06/22 07:34:27;;;;;;;;;;;;;;;25.27;48.52;100589.00;5063892;28;1146;-72
2021/06/22 07:37:12;;;;;;;;;;;;;;;25.33;48.29;100593.78;5064333;28;1427;-68
2021/06/22 07:39:58;;;;;;;;;;;;;;;25.30;48.44;100593.22;5065385;28;1073;-68
2021/06/22 07:42:43;;;;;;;;;;;;;;;25.33;48.38;100599.13;5065944;28;1307;-70
2021/06/22 07:45:28;;;;;;;;;;;;;;;25.34;48.56;100599.97;5066419;28;1105;-70
2021/06/22 07:48:14;;;;;;;;;;;;;;;25.37;48.28;100605.88;5065430;28;1387;-70
2021/06/22 07:51:01;;;;;;;;;;;;;;;25.29;47.51;100603.03;5065689;28;1902;-70
2021/06/22 07:53:46;;;;;;;;;;;;;;;25.27;47.30;100605.00;5045929;28;1132;-68
2021/06/22 07:56:31;;;;;;;;;;;;;;;25.30;46.57;100614.53;5049348;28;1278;-68
2021/06/22 07:59:17;;;;;;;;;;;;;;;25.31;47.13;100610.91;5063075;28;1518;-69
2021/06/22 08:02:02;;;;;;;;;;;;;;;25.31;46.96;100611.75;5064174;28;1323;-70
2021/06/22 08:04:48;;;;;;;;;;;;;;;25.32;47.32;100612.59;5065791;28;1085;-71
2021/06/22 08:07:33;;;;;;;;;;;;;;;25.39;47.32;100609.25;5066076;28;1421;-71
2021/06/22 08:10:18;;;;;;;;;;;;;;;25.40;47.48;100621.63;5068485;28;1973;-69
2021/06/22 08:13:04;;;;;;;;;;;;;;;25.37;47.76;100621.88;5065743;28;1375;-65
2021/06/22 08:15:49;;;;;;;;;;;;;;;25.39;47.92;100614.59;5069168;28;1053;-67
2021/06/22 08:18:34;;;;;;;;;;;;;;;25.51;48.00;100621.56;5069226;28;1582;-67
2021/06/22 08:21:23;;;;;;;;;;;;;;;25.57;47.47;100616.66;5051532;28;1292;-68
2021/06/22 08:24:08;;;;;;;;;;;;;;;25.58;47.37;100624.53;5068114;28;1006;-68
2021/06/22 08:26:56;;;;;;;;;;;;;;;25.67;47.85;100621.06;5067664;28;1310;-67
2021/06/22 08:29:41;;;;;;;;;;;;;;;25.74;47.54;100618.69;5069576;28;941;-65
2021/06/22 08:32:26;;;;;;;;;;;;;;;25.72;47.89;100620.63;5068612;28;1891;-61
2021/06/22 08:35:13;;;;;;;;;;;;;;;25.66;48.04;100623.84;5068044;28;1067;-60
2021/06/22 08:37:59;;;;;;;;;;;;;;;25.65;47.96;100623.03;5068513;28;1246;-62
2021/06/22 08:40:46;;;;;;;;;;;;;;;25.55;47.72;100619.47;5068705;28;694;-62
2021/06/22 08:43:31;;;;;;;;;;;;;;;25.60;47.71;100629.72;5066656;28;1296;-62
2021/06/22 08:46:16;;;;;;;;;;;;;;;25.62;47.72;100623.31;5068913;28;1360;-63
2021/06/22 08:49:03;;;;;;;;;;;;;;;25.65;47.63;100627.50;5068561;28;1055;-63
2021/06/22 08:51:55;;;;;;;;;;;;;;;25.66;47.42;100622.03;5068511;28;1910;-63
2021/06/22 08:54:40;;;;;;;;;;;;;;;25.64;47.17;100620.47;5069191;28;1106;-63
2021/06/22 08:57:25;;;;;;;;;;;;;;;25.66;47.72;100631.84;5069463;28;1353;-63
2021/06/22 09:00:11;;;;;;;;;;;;;;;25.65;47.30;100628.38;5069540;28;1053;-63
2021/06/22 09:02:59;;;;;;;;;;;;;;;25.64;47.84;100636.50;5069454;28;1253;-63
2021/06/22 09:05:44;;;;;;;;;;;;;;;25.69;47.37;100636.91;5068865;28;757;-61
2021/06/22 09:08:30;;;;;;;;;;;;;;;25.66;48.32;100631.84;5068596;28;1231;-62
2021/06/22 09:11:16;;;;;;;;;;;;;;;25.70;48.23;100633.28;5068177;28;1989;-62
2021/06/22 09:14:04;;;;;;;;;;;;;;;25.72;48.11;100636.66;5068810;28;1034;-62
2021/06/22 09:16:59;;;;;;;;;;;;;;;25.73;47.89;100627.69;5068257;28;1213;-62
2021/06/22 09:19:51;;;;;;;;;;;;;;;25.73;48.20;100633.88;5064817;28;1599;-62
2021/06/22 09:22:36;;;;;;;;;;;;;;;25.72;48.76;100632.16;5067554;28;1541;-63
2021/06/22 09:25:23;;;;;;;;;;;;;;;25.73;49.13;100638.34;5076785;28;1514;-62
2021/06/22 09:28:09;;;;;;;;;;;;;;;25.72;48.56;100648.16;5085600;28;1525;-63
2021/06/22 09:30:56;;;;;;;;;;;;;;;25.68;49.39;100640.59;5067051;28;1926;-62
2021/06/22 09:33:45;;;;;;;;;;;;;;;25.68;49.16;100641.44;5067998;28;1536;-63
2021/06/22 09:36:30;;;;;;;;;;;;;;;25.68;49.08;100648.59;5068562;28;1517;-62
2021/06/22 09:39:16;;;;;;;;;;;;;;;25.71;49.04;100646.50;5068789;28;828;-63
2021/06/22 09:42:01;;;;;;;;;;;;;;;25.70;48.83;100651.97;5068008;28;1289;-62
2021/06/22 09:44:47;;;;;;;;;;;;;;;25.74;48.50;100651.56;5068030;28;1131;-62
2021/06/22 09:47:34;;;;;;;;;;;;;;;25.75;48.16;100655.06;5068429;28;1357;-63
2021/06/22 09:50:58;;;;;;;;;;;;;;;25.77;47.98;100655.78;5067699;28;1354;-64
2021/06/22 09:53:53;;;;;;;;;;;;;;;25.75;47.96;100652.38;5005073;28;1492;-62
2021/06/22 09:56:57;;;;;;;;;;;;;;;25.74;48.38;100650.72;5004931;28;1285;-64
2021/06/22 09:59:49;;;;;;;;;;;;;;;25.77;48.28;100655.78;5066162;28;1184;-64
2021/06/22 10:02:51;;;;;;;;;;;;;;;25.78;48.15;100662.78;5070995;28;1264;-63
2021/06/22 10:05:52;;;;;;;;;;;;;;;25.78;48.05;100666.31;5078297;28;1156;-62
2021/06/22 10:09:03;;;;;;;;;;;;;;;25.80;48.12;100672.38;5065014;28;1188;-63
2021/06/22 10:11:59;;;;;;;;;;;;;;;25.82;47.72;100674.88;5064085;28;1918;-62
2021/06/22 10:14:45;;;;;;;;;;;;;;;25.82;47.71;100680.22;5080322;28;1152;-66
2021/06/22 10:17:32;;;;;;;;;;;;;;;25.84;47.69;100673.78;5070476;28;1565;-64
2021/06/22 10:20:17;;;;;;;;;;;;;;;25.86;47.75;100681.66;5085884;28;1351;-64
2021/06/22 10:23:03;;;;;;;;;;;;;;;25.83;47.94;100680.09;5079079;28;1370;-65
2021/06/22 10:25:48;;;;;;;;;;;;;;;25.83;47.91;100676.59;5074425;28;1267;-64
2021/06/22 10:28:34;;;;;;;;;;;;;;;25.83;47.75;100677.44;5067942;28;1597;-65
2021/06/22 10:31:20;;;;;;;;;;;;;;;25.81;47.75;100678.53;5068943;28;1902;-65
2021/06/22 10:34:05;;;;;;;;;;;;;;;25.85;48.01;100679.97;5066952;28;979;-67
2021/06/22 10:36:54;;;;;;;;;;;;;;;25.86;47.77;100676.31;5065725;28;1304;-66
2021/06/22 10:39:48;;;;;;;;;;;;;;;25.86;48.21;100671.84;5068850;28;1137;-67
2021/06/22 10:42:41;;;;;;;;;;;;;;;25.86;47.50;100674.50;5066444;28;1323;-65
2021/06/22 10:45:26;;;;;;;;;;;;;;;25.87;47.24;100675.34;5066884;28;1102;-65
2021/06/22 10:48:18;;;;;;;;;;;;;;;25.87;47.03;100676.16;5067674;28;1249;-66
2021/06/22 10:51:23;;;;;;;;;;;;;;;25.91;46.13;100674.09;5067864;28;1905;-67
2021/06/22 10:54:13;;;;;;;;;;;;;;;25.90;46.06;100672.41;5066271;28;978;-64
2021/06/22 10:56:58;;;;;;;;;;;;;;;25.91;47.37;100674.09;5066579;28;1247;-65
2021/06/22 11:00:01;;;;;;;;;;;;;;;25.92;47.22;100665.09;5066489;28;1055;-66
2021/06/22 11:03:07;;;;;;;;;;;;;;;25.91;46.88;100664.25;5066125;28;1292;-65
2021/06/22 11:06:12;;;;;;;;;;;;;;;25.95;47.04;100670.19;5067433;28;1760;-66
2021/06/22 11:09:14;;;;;;;;;;;;;;;25.96;47.10;100664.69;5056549;28;1129;-66
2021/06/22 11:12:18;;;;;;;;;;;;;;;25.97;47.34;100668.19;5079787;28;1905;-60
2021/06/22 11:15:07;;;;;;;;;;;;;;;26.02;46.46;100671.34;5080290;28;1228;-65
2021/06/22 11:17:59;;;;;;;;;;;;;;;26.09;46.28;100670.63;5072328;28;1252;-64
2021/06/22 11:21:05;;;;;;;;;;;;;;;26.08;45.40;100674.28;5066616;28;884;-66
2021/06/22 11:24:10;;;;;;;;;;;;;;;26.02;45.32;100666.81;5067423;28;1265;-67
2021/06/22 11:27:03;;;;;;;;;;;;;;;26.02;45.33;100663.31;5063963;28;1270;-66
2021/06/22 11:29:53;;;;;;;;;;;;;;;26.03;45.10;100662.31;5079751;28;1571;-66
2021/06/22 11:32:39;;;;;;;;;;;;;;;26.08;47.02;100662.78;5085364;28;1906;-68
2021/06/22 11:35:25;;;;;;;;;;;;;;;26.12;46.23;100660.66;5081321;28;1103;-66
2021/06/22 11:38:13;;;;;;;;;;;;;;;26.06;45.60;100654.88;5074538;28;1267;-67
2021/06/22 11:41:15;;;;;;;;;;;;;;;26.08;45.97;100660.09;5082152;28;1091;-67
2021/06/22 11:44:07;;;;;;;;;;;;;;;26.09;46.40;100661.78;5074509;28;1064;-68
2021/06/22 11:46:53;;;;;;;;;;;;;;;26.11;46.49;100667.00;5079799;28;1388;-65
2021/06/22 11:49:45;;;;;;;;;;;;;;;26.18;46.80;100668.16;5069861;28;1050;-66
2021/06/22 11:52:31;;;;;;;;;;;;;;;26.22;47.34;100662.41;5068575;28;1901;-68
2021/06/22 11:55:19;;;;;;;;;;;;;;;26.24;47.58;100652.44;5064401;28;1135;-70
2021/06/22 11:58:05;;;;;;;;;;;;;;;26.22;47.18;100665.06;5071667;28;1288;-72
2021/06/22 12:00:51;;;;;;;;;;;;;;;26.23;47.24;100658.78;5079992;28;1065;-69
2021/06/22 12:03:39;;;;;;;;;;;;;;;26.22;47.62;100667.75;5076036;28;1207;-68
2021/06/22 12:06:24;;;;;;;;;;;;;;;26.23;47.56;100665.94;5071339;28;1634;-71
2021/06/22 12:09:19;;;;;;;;;;;;;;;26.23;47.75;100669.44;5070835;28;1702;-68
2021/06/22 12:12:05;;;;;;;;;;;;;;;26.22;47.63;100675.75;5051211;28;1981;-70
2021/06/22 12:14:52;;;;;;;;;;;;;;;26.22;48.55;100677.59;5078346;28;1183;-67
2021/06/22 12:17:38;;;;;;;;;;;;;;;26.22;48.27;100675.75;5070201;28;1682;-69
2021/06/22 12:20:26;;;;;;;;;;;;;;;26.22;48.55;100667.75;5083981;28;1077;-67
2021/06/22 12:23:14;;;;;;;;;;;;;;;26.25;47.91;100679.97;5090184;27;1231;-67
2021/06/22 12:25:59;;;;;;;;;;;;;;;26.21;47.50;100676.72;5077927;28;1205;-68
2021/06/22 12:28:45;;;;;;;;;;;;;;;26.26;47.76;100679.00;5080834;28;1145;-67
2021/06/22 12:31:30;;;;;;;;;;;;;;;26.25;47.66;100677.31;5085359;28;1902;-69
2021/06/22 12:34:16;;;;;;;;;;;;;;;26.21;46.79;100668.72;5072912;28;1184;-67
2021/06/22 12:37:01;;;;;;;;;;;;;;;26.20;46.93;100669.72;5064484;28;1260;-66
2021/06/22 12:39:48;;;;;;;;;;;;;;;26.22;46.98;100675.75;5074457;28;1123;-66
2021/06/22 12:42:35;;;;;;;;;;;;;;;26.24;46.77;100670.25;5068181;28;1263;-66
2021/06/22 12:45:24;;;;;;;;;;;;;;;26.27;46.90;100680.66;5063970;28;1636;-65
2021/06/22 12:48:10;;;;;;;;;;;;;;;26.24;46.53;100684.47;5066029;28;1263;-66
2021/06/22 12:50:59;;;;;;;;;;;;;;;26.25;46.75;100675.47;5065979;28;644;-66
2021/06/22 12:53:46;;;;;;;;;;;;;;;26.23;44.57;100671.28;5066611;28;989;-66
2021/06/22 12:56:31;;;;;;;;;;;;;;;26.22;44.87;100666.91;5069937;28;1342;-65
2021/06/22 12:59:21;;;;;;;;;;;;;;;26.26;43.92;100663.84;5069518;28;1030;-65
2021/06/22 13:02:07;;;;;;;;;;;;;;;26.27;45.96;100665.50;5096528;28;1358;-65
2021/06/22 13:04:54;;;;;;;;;;;;;;;26.28;45.98;100667.19;5076567;28;1112;-66
2021/06/22 13:07:46;;;;;;;;;;;;;;;26.30;46.66;100661.69;5079233;28;1331;-66
2021/06/22 13:10:31;;;;;;;;;;;;;;;26.29;46.28;100663.56;5069390;28;1051;-67
2021/06/22 13:13:20;;;;;;;;;;;;;;;26.31;46.88;100658.91;5074855;28;1922;-65
2021/06/22 13:16:07;;;;;;;;;;;;;;;26.33;46.99;100664.09;5074194;28;1212;-64
2021/06/22 13:19:01;;;;;;;;;;;;;;;26.33;47.21;100667.63;5067104;28;1072;-65
2021/06/22 13:21:48;;;;;;;;;;;;;;;26.35;47.27;100665.69;5081139;28;1307;-65
2021/06/22 13:24:40;;;;;;;;;;;;;;;26.34;47.26;100665.81;5077455;28;1048;-66
2021/06/22 13:27:27;;;;;;;;;;;;;;;26.34;47.16;100663.97;5095093;28;1247;-67
2021/06/22 13:30:14;;;;;;;;;;;;;;;26.35;47.04;100667.50;5071556;28;1128;-69
2021/06/22 13:33:00;;;;;;;;;;;;;;;26.35;47.27;100676.34;5075849;28;1995;-68
2021/06/22 13:35:51;;;;;;;;;;;;;;;26.35;47.16;100675.50;5077732;28;1109;-66
2021/06/22 13:38:37;;;;;;;;;;;;;;;26.40;47.34;100671.44;5068243;28;1646;-70
2021/06/22 13:41:22;;;;;;;;;;;;;;;26.38;47.80;100668.06;5065217;28;1263;-66
2021/06/22 13:44:07;;;;;;;;;;;;;;;26.37;47.49;100662.84;5070249;28;1105;-66
2021/06/22 13:46:53;;;;;;;;;;;;;;;26.39;47.49;100667.06;5063317;28;1394;-65
2021/06/22 13:49:42;;;;;;;;;;;;;;;26.39;47.50;100663.53;5069710;28;1106;-65
2021/06/22 13:52:27;;;;;;;;;;;;;;;26.37;47.60;100661.03;5067339;28;1969;-69
2021/06/22 13:55:13;;;;;;;;;;;;;;;26.41;47.77;100659.78;5076946;28;1014;-71
2021/06/22 13:58:00;;;;;;;;;;;;;;;26.47;47.49;100656.56;5073925;28;1335;-70
2021/06/22 14:00:50;;;;;;;;;;;;;;;26.46;47.58;100665.53;5076735;28;1010;-71
2021/06/22 14:03:36;;;;;;;;;;;;;;;26.45;47.44;100666.50;5073155;28;1140;-75
2021/06/22 14:06:21;;;;;;;;;;;;;;;26.47;47.39;100671.72;5061214;28;1426;-70
2021/06/22 14:09:07;;;;;;;;;;;;;;;26.47;47.31;100671.72;5068909;28;1098;-70
2021/06/22 14:11:52;;;;;;;;;;;;;;;26.47;47.45;100677.91;5080952;28;1910;-70
2021/06/22 14:14:37;;;;;;;;;;;;;;;26.46;47.44;100670.88;5065757;28;1128;-69
2021/06/22 14:17:23;;;;;;;;;;;;;;;26.45;47.42;100671.84;5069179;28;1435;-69
2021/06/22 14:20:09;;;;;;;;;;;;;;;26.45;46.85;100668.34;5066376;28;1075;-70
2021/06/22 14:22:54;;;;;;;;;;;;;;;26.45;46.35;100668.34;5069223;28;1315;-70
2021/06/22 14:25:41;;;;;;;;;;;;;;;26.47;46.47;100677.06;5067792;28;1071;-72
2021/06/22 14:28:29;;;;;;;;;;;;;;;26.45;46.45;100668.34;5067360;28;1254;-68
2021/06/22 14:31:15;;;;;;;;;;;;;;;26.44;46.63;100664.00;5068504;28;1410;-68